createdAt,value
2024-05-09T00:00:18.183Z,6.00
2024-05-09T00:01:15.243Z,6.70
2024-05-09T00:01:48.651Z,5.90
2024-05-09T00:02:21.740Z,6.50
2024-05-09T00:02:55.006Z,6.20
2024-05-09T00:03:28.160Z,6.40
2024-05-09T00:04:01.477Z,6.60
2024-05-09T00:04:34.522Z,7.10
2024-05-09T00:05:10.727Z,6.30
2024-05-09T00:05:44.588Z,6.50
2024-05-09T00:06:17.832Z,6.20
2024-05-09T00:06:50.937Z,6.20
2024-05-09T00:07:23.937Z,7.00
2024-05-09T00:07:57.101Z,6.00
2024-05-09T00:08:30.371Z,6.20
2024-05-09T00:09:03.995Z,6.90
2024-05-09T00:09:37.878Z,7.00
2024-05-09T00:10:18.266Z,6.80
2024-05-09T00:10:58.495Z,6.80
2024-05-09T00:11:31.500Z,6.70
2024-05-09T00:12:04.815Z,6.60
2024-05-09T00:12:38.104Z,6.40
2024-05-09T00:13:11.572Z,6.90
2024-05-09T00:13:44.450Z,6.40
2024-05-09T00:14:17.693Z,7.10
2024-05-09T00:14:50.828Z,7.30
2024-05-09T00:15:23.979Z,7.30
2024-05-09T00:15:57.428Z,7.60
2024-05-09T00:16:30.312Z,7.70
2024-05-09T00:17:03.565Z,7.70
2024-05-09T00:17:36.744Z,8.80
2024-05-09T00:18:09.881Z,7.60
2024-05-09T00:18:43.361Z,8.10
2024-05-09T00:19:16.660Z,6.90
2024-05-09T00:19:49.880Z,8.00
2024-05-09T00:20:28.562Z,6.90
2024-05-09T00:21:10.040Z,6.80
2024-05-09T00:21:43.779Z,7.40
2024-05-09T00:22:17.131Z,7.20
2024-05-09T00:22:50.261Z,7.30
2024-05-09T00:23:23.349Z,7.40
2024-05-09T00:23:56.461Z,7.00
2024-05-09T00:24:29.411Z,6.80
2024-05-09T00:25:02.552Z,6.40
2024-05-09T00:25:35.814Z,6.80
2024-05-09T00:26:08.930Z,6.80
2024-05-09T00:26:42.090Z,6.90
2024-05-09T00:27:16.024Z,7.00
2024-05-09T00:27:49.031Z,6.90
2024-05-09T00:28:22.337Z,7.50
2024-05-09T00:28:55.702Z,7.90
2024-05-09T00:29:28.961Z,6.90
2024-05-09T00:30:04.031Z,7.50
2024-05-09T00:30:37.649Z,7.10
2024-05-09T00:31:11.037Z,7.20
2024-05-09T00:31:44.311Z,7.10
2024-05-09T00:32:17.668Z,7.30
2024-05-09T00:32:50.988Z,7.90
2024-05-09T00:33:24.769Z,7.60
2024-05-09T00:33:58.231Z,8.10
2024-05-09T00:34:31.343Z,6.80
2024-05-09T00:35:04.717Z,7.10
2024-05-09T00:35:38.149Z,7.70
2024-05-09T00:36:11.516Z,7.30
2024-05-09T00:36:44.600Z,6.90
2024-05-09T00:37:18.018Z,7.50
2024-05-09T00:37:51.140Z,8.10
2024-05-09T00:38:24.268Z,7.20
2024-05-09T00:38:57.447Z,7.50
2024-05-09T00:39:30.585Z,8.00
2024-05-09T00:40:05.796Z,6.70
2024-05-09T00:40:43.162Z,6.90
2024-05-09T00:41:19.743Z,7.00
2024-05-09T00:41:53.164Z,7.10
2024-05-09T00:42:26.238Z,7.50
2024-05-09T00:42:59.242Z,6.30
2024-05-09T00:43:32.821Z,6.90
2024-05-09T00:44:05.989Z,6.60
2024-05-09T00:44:39.059Z,7.00
2024-05-09T00:45:12.222Z,6.90
2024-05-09T00:45:46.021Z,7.80
2024-05-09T00:46:19.291Z,7.40
2024-05-09T00:46:55.490Z,7.30
2024-05-09T00:47:28.794Z,7.40
2024-05-09T00:48:06.668Z,6.80
2024-05-09T00:48:41.424Z,6.80
2024-05-09T00:49:15.055Z,7.20
2024-05-09T00:49:48.881Z,7.30
2024-05-09T00:50:29.893Z,8.20
2024-05-09T00:51:09.630Z,7.20
2024-05-09T00:51:43.098Z,7.40
2024-05-09T00:52:16.547Z,7.20
2024-05-09T00:52:50.264Z,8.10
2024-05-09T00:53:24.459Z,7.60
2024-05-09T00:53:57.974Z,7.20
2024-05-09T00:54:31.096Z,6.00
2024-05-09T00:55:04.649Z,6.20
2024-05-09T00:55:39.130Z,6.10
2024-05-09T00:56:13.153Z,6.30
2024-05-09T00:56:46.439Z,6.00
2024-05-09T00:57:19.571Z,6.90
2024-05-09T00:57:53.037Z,6.70
2024-05-09T00:58:29.632Z,7.20
2024-05-09T00:59:03.290Z,6.60
2024-05-09T00:59:36.433Z,6.80
2024-05-09T01:00:22.324Z,6.90
2024-05-09T01:01:04.493Z,6.80
2024-05-09T01:01:37.797Z,7.20
2024-05-09T01:02:11.615Z,8.10
2024-05-09T01:02:44.988Z,6.30
2024-05-09T01:03:18.472Z,7.40
2024-05-09T01:03:52.617Z,6.30
2024-05-09T01:04:25.775Z,6.60
2024-05-09T01:04:59.486Z,7.50
2024-05-09T01:05:32.897Z,7.30
2024-05-09T01:06:06.150Z,7.20
2024-05-09T01:06:39.447Z,7.00
2024-05-09T01:07:12.884Z,7.00
2024-05-09T01:07:45.766Z,6.60
2024-05-09T01:08:18.850Z,6.70
2024-05-09T01:08:52.178Z,6.90
2024-05-09T01:09:25.011Z,6.20
2024-05-09T01:09:58.061Z,7.00
2024-05-09T01:10:34.839Z,6.50
2024-05-09T01:11:09.536Z,6.80
2024-05-09T01:11:42.806Z,7.40
2024-05-09T01:12:15.995Z,6.50
2024-05-09T01:12:49.820Z,6.60
2024-05-09T01:13:23.004Z,7.00
2024-05-09T01:13:56.274Z,7.20
2024-05-09T01:14:29.312Z,6.50
2024-05-09T01:15:02.396Z,6.20
2024-05-09T01:15:36.100Z,6.60
2024-05-09T01:16:09.342Z,6.90
2024-05-09T01:16:42.634Z,6.70
2024-05-09T01:17:16.215Z,6.30
2024-05-09T01:17:49.714Z,6.60
2024-05-09T01:18:23.143Z,6.10
2024-05-09T01:18:56.956Z,6.30
2024-05-09T01:19:31.777Z,7.40
2024-05-09T01:20:06.440Z,7.40
2024-05-09T01:20:45.190Z,6.70
2024-05-09T01:21:18.915Z,6.40
2024-05-09T01:21:52.050Z,7.60
2024-05-09T01:22:27.816Z,7.70
2024-05-09T01:23:06.779Z,8.40
2024-05-09T01:23:40.226Z,8.30
2024-05-09T01:24:13.441Z,8.10
2024-05-09T01:24:46.595Z,7.40
2024-05-09T01:25:19.561Z,7.50
2024-05-09T01:25:52.692Z,7.70
2024-05-09T01:26:26.042Z,8.80
2024-05-09T01:26:59.521Z,7.90
2024-05-09T01:27:32.644Z,7.30
2024-05-09T01:28:06.538Z,7.60
2024-05-09T01:28:39.722Z,8.10
2024-05-09T01:29:13.146Z,8.30
2024-05-09T01:29:46.270Z,7.10
2024-05-09T01:30:24.342Z,7.10
2024-05-09T01:31:01.347Z,6.20
2024-05-09T01:31:34.468Z,6.90
2024-05-09T01:32:07.690Z,6.60
2024-05-09T01:32:41.008Z,6.10
2024-05-09T01:33:14.820Z,6.70
2024-05-09T01:33:47.945Z,6.60
2024-05-09T01:34:21.370Z,7.20
2024-05-09T01:34:54.486Z,8.90
2024-05-09T01:35:27.769Z,6.70
2024-05-09T01:36:01.043Z,7.80
2024-05-09T01:36:33.926Z,7.70
2024-05-09T01:37:07.134Z,7.40
2024-05-09T01:37:40.425Z,8.00
2024-05-09T01:38:14.220Z,7.90
2024-05-09T01:38:47.480Z,7.80
2024-05-09T01:39:20.631Z,7.90
2024-05-09T01:39:53.733Z,8.60
2024-05-09T01:40:36.239Z,7.60
2024-05-09T01:41:12.171Z,7.10
2024-05-09T01:41:45.055Z,7.90
2024-05-09T01:42:18.183Z,7.70
2024-05-09T01:42:51.261Z,8.70
2024-05-09T01:43:24.284Z,8.10
2024-05-09T01:43:57.433Z,8.70
2024-05-09T01:44:30.584Z,8.30
2024-05-09T01:45:03.992Z,9.20
2024-05-09T01:45:37.098Z,8.60
2024-05-09T01:46:16.978Z,7.70
2024-05-09T01:46:50.126Z,6.90
2024-05-09T01:47:23.484Z,7.90
2024-05-09T01:47:57.140Z,7.00
2024-05-09T01:48:30.369Z,8.10
2024-05-09T01:49:04.592Z,7.00
2024-05-09T01:49:38.262Z,7.60
2024-05-09T01:50:11.600Z,7.50
2024-05-09T01:50:49.476Z,6.90
2024-05-09T01:51:22.499Z,7.60
2024-05-09T01:51:55.620Z,7.90
2024-05-09T01:52:28.765Z,7.00
2024-05-09T01:53:01.981Z,7.50
2024-05-09T01:53:35.232Z,7.50
2024-05-09T01:54:08.519Z,6.70
2024-05-09T01:54:41.540Z,7.70
2024-05-09T01:55:14.739Z,7.30
2024-05-09T01:55:47.822Z,7.10
2024-05-09T01:56:20.954Z,7.60
2024-05-09T01:56:54.203Z,6.70
2024-05-09T01:57:27.172Z,7.30
2024-05-09T01:58:00.204Z,7.00
2024-05-09T01:58:33.474Z,7.70
2024-05-09T01:59:07.620Z,6.80
2024-05-09T01:59:40.787Z,7.90
2024-05-09T02:00:18.833Z,6.60
2024-05-09T02:00:58.950Z,7.20
2024-05-09T02:01:55.356Z,7.10
2024-05-09T02:02:25.353Z,7.80
2024-05-09T02:02:58.797Z,7.70
2024-05-09T02:03:32.196Z,7.90
2024-05-09T02:04:05.862Z,7.70
2024-05-09T02:04:39.519Z,7.30
2024-05-09T02:05:12.945Z,6.80
2024-05-09T02:05:48.127Z,7.30
2024-05-09T02:06:21.652Z,8.30
2024-05-09T02:06:54.607Z,8.10
2024-05-09T02:07:27.579Z,7.70
2024-05-09T02:08:00.784Z,7.50
2024-05-09T02:08:34.018Z,7.00
2024-05-09T02:09:07.462Z,6.90
2024-05-09T02:09:40.372Z,8.10
2024-05-09T02:10:20.194Z,8.20
2024-05-09T02:10:56.610Z,7.70
2024-05-09T02:11:30.467Z,7.40
2024-05-09T02:12:03.979Z,8.30
2024-05-09T02:12:37.252Z,8.00
2024-05-09T02:13:10.561Z,7.70
2024-05-09T02:13:43.472Z,8.10
2024-05-09T02:14:18.389Z,7.70
2024-05-09T02:14:51.944Z,8.60
2024-05-09T02:15:25.073Z,7.10
2024-05-09T02:15:59.211Z,7.60
2024-05-09T02:16:32.050Z,7.90
2024-05-09T02:17:05.120Z,8.10
2024-05-09T02:17:38.472Z,7.70
2024-05-09T02:18:12.005Z,7.30
2024-05-09T02:18:45.543Z,7.30
2024-05-09T02:19:18.841Z,7.50
2024-05-09T02:19:52.071Z,7.50
2024-05-09T02:20:33.548Z,7.50
2024-05-09T02:21:09.855Z,7.80
2024-05-09T02:21:42.833Z,7.70
2024-05-09T02:22:15.825Z,7.40
2024-05-09T02:22:48.885Z,7.00
2024-05-09T02:23:22.039Z,7.10
2024-05-09T02:23:55.115Z,7.40
2024-05-09T02:24:28.225Z,8.10
2024-05-09T02:25:01.297Z,7.50
2024-05-09T02:25:34.709Z,7.80
2024-05-09T02:26:08.045Z,8.20
2024-05-09T02:26:41.244Z,8.20
2024-05-09T02:27:14.236Z,7.40
2024-05-09T02:27:47.251Z,7.50
2024-05-09T02:28:23.010Z,7.30
2024-05-09T02:28:56.184Z,7.60
2024-05-09T02:29:29.503Z,7.50
2024-05-09T02:30:02.847Z,7.90
2024-05-09T02:30:40.666Z,7.40
2024-05-09T02:31:15.195Z,7.60
2024-05-09T02:31:48.357Z,8.00
2024-05-09T02:32:21.573Z,7.40
2024-05-09T02:32:54.819Z,8.10
2024-05-09T02:33:28.705Z,7.30
2024-05-09T02:34:02.117Z,7.60
2024-05-09T02:34:35.204Z,7.80
2024-05-09T02:35:08.269Z,8.40
2024-05-09T02:35:42.786Z,7.70
2024-05-09T02:36:16.631Z,8.10
2024-05-09T02:36:49.712Z,7.70
2024-05-09T02:37:22.653Z,7.90
2024-05-09T02:37:55.782Z,8.00
2024-05-09T02:38:28.971Z,8.10
2024-05-09T02:39:01.965Z,8.20
2024-05-09T02:39:34.969Z,8.00
2024-05-09T02:40:14.247Z,7.50
2024-05-09T02:40:47.989Z,8.10
2024-05-09T02:41:21.274Z,7.60
2024-05-09T02:41:54.529Z,7.00
2024-05-09T02:42:27.528Z,7.50
2024-05-09T02:43:01.056Z,7.50
2024-05-09T02:43:34.067Z,8.20
2024-05-09T02:44:07.256Z,7.90
2024-05-09T02:44:40.362Z,8.80
2024-05-09T02:45:13.505Z,7.80
2024-05-09T02:45:46.360Z,8.10
2024-05-09T02:46:19.266Z,7.90
2024-05-09T02:46:52.502Z,7.80
2024-05-09T02:47:25.661Z,7.80
2024-05-09T02:47:59.315Z,7.40
2024-05-09T02:48:32.755Z,7.70
2024-05-09T02:49:06.224Z,8.00
2024-05-09T02:49:39.540Z,6.70
2024-05-09T02:50:46.400Z,8.00
2024-05-09T02:51:19.599Z,7.70
2024-05-09T02:51:52.724Z,7.10
2024-05-09T02:52:25.816Z,7.50
2024-05-09T02:52:59.017Z,7.30
2024-05-09T02:53:32.445Z,7.00
2024-05-09T02:54:07.662Z,7.70
2024-05-09T02:54:40.726Z,7.00
2024-05-09T02:55:14.092Z,7.10
2024-05-09T02:55:47.485Z,7.10
2024-05-09T02:56:20.659Z,7.70
2024-05-09T02:56:53.922Z,7.20
2024-05-09T02:57:26.985Z,7.90
2024-05-09T02:58:00.157Z,7.50
2024-05-09T02:58:33.400Z,7.00
2024-05-09T02:59:06.645Z,7.10
2024-05-09T02:59:39.745Z,8.50
2024-05-09T03:00:19.011Z,7.80
2024-05-09T03:00:58.890Z,7.20
2024-05-09T03:01:32.039Z,7.90
2024-05-09T03:02:05.311Z,8.00
2024-05-09T03:02:38.663Z,7.30
2024-05-09T03:03:14.318Z,7.70
2024-05-09T03:03:51.553Z,7.20
2024-05-09T03:04:24.947Z,7.00
2024-05-09T03:04:58.942Z,7.90
2024-05-09T03:05:32.243Z,7.30
2024-05-09T03:06:05.634Z,7.60
2024-05-09T03:06:44.879Z,7.20
2024-05-09T03:07:20.063Z,8.10
2024-05-09T03:07:53.410Z,7.30
2024-05-09T03:08:28.118Z,6.80
2024-05-09T03:09:01.238Z,7.30
2024-05-09T03:09:34.431Z,7.40
2024-05-09T03:10:18.027Z,7.70
2024-05-09T03:10:55.545Z,7.10
2024-05-09T03:11:28.896Z,7.90
2024-05-09T03:12:02.091Z,7.70
2024-05-09T03:12:37.884Z,6.80
2024-05-09T03:13:15.683Z,7.60
2024-05-09T03:13:53.823Z,8.00
2024-05-09T03:14:26.863Z,7.60
2024-05-09T03:15:00.269Z,8.10
2024-05-09T03:15:33.405Z,8.00
2024-05-09T03:16:06.664Z,8.00
2024-05-09T03:16:39.785Z,7.80
2024-05-09T03:17:13.010Z,7.50
2024-05-09T03:17:46.552Z,7.10
2024-05-09T03:18:20.087Z,7.60
2024-05-09T03:18:55.139Z,7.90
2024-05-09T03:19:28.456Z,7.60
2024-05-09T03:20:04.140Z,7.60
2024-05-09T03:20:39.226Z,7.00
2024-05-09T03:21:12.549Z,8.10
2024-05-09T03:21:45.672Z,7.20
2024-05-09T03:22:18.696Z,8.50
2024-05-09T03:22:54.067Z,7.90
2024-05-09T03:23:28.440Z,7.40
2024-05-09T03:24:01.432Z,7.60
2024-05-09T03:24:34.372Z,7.70
2024-05-09T03:25:07.536Z,7.40
2024-05-09T03:25:40.851Z,7.20
2024-05-09T03:26:15.264Z,7.00
2024-05-09T03:26:48.431Z,7.30
2024-05-09T03:27:21.606Z,8.40
2024-05-09T03:27:54.941Z,7.30
2024-05-09T03:28:27.854Z,6.80
2024-05-09T03:29:01.033Z,7.30
2024-05-09T03:29:34.392Z,8.00
2024-05-09T03:30:09.943Z,6.90
2024-05-09T03:30:43.583Z,6.80
2024-05-09T03:31:18.624Z,7.00
2024-05-09T03:31:51.773Z,7.10
2024-05-09T03:32:24.845Z,6.70
2024-05-09T03:32:58.235Z,6.90
2024-05-09T03:33:31.921Z,7.70
2024-05-09T03:34:05.397Z,7.10
2024-05-09T03:34:41.691Z,7.00
2024-05-09T03:35:14.765Z,7.00
2024-05-09T03:35:48.733Z,6.10
2024-05-09T03:36:22.419Z,6.60
2024-05-09T03:36:55.611Z,6.30
2024-05-09T03:37:28.580Z,7.20
2024-05-09T03:38:01.878Z,6.70
2024-05-09T03:38:41.420Z,6.50
2024-05-09T03:39:14.619Z,6.80
2024-05-09T03:39:47.657Z,6.70
2024-05-09T03:40:24.117Z,6.80
2024-05-09T03:40:59.926Z,7.10
2024-05-09T03:41:33.360Z,7.80
2024-05-09T03:42:06.539Z,7.40
2024-05-09T03:42:41.812Z,7.30
2024-05-09T03:43:15.545Z,7.00
2024-05-09T03:43:48.805Z,7.40
2024-05-09T03:44:21.972Z,7.30
2024-05-09T03:44:55.283Z,7.10
2024-05-09T03:45:28.669Z,7.10
2024-05-09T03:46:01.829Z,7.40
2024-05-09T03:46:38.885Z,7.30
2024-05-09T03:47:12.168Z,7.20
2024-05-09T03:47:45.608Z,7.40
2024-05-09T03:48:19.332Z,7.40
2024-05-09T03:48:52.603Z,8.20
2024-05-09T03:49:25.971Z,7.20
2024-05-09T03:49:59.314Z,7.10
2024-05-09T03:50:35.582Z,7.30
2024-05-09T03:51:09.876Z,7.60
2024-05-09T03:51:43.558Z,6.70
2024-05-09T03:52:16.608Z,7.10
2024-05-09T03:52:49.904Z,6.90
2024-05-09T03:53:23.249Z,7.10
2024-05-09T03:53:56.902Z,6.80
2024-05-09T03:54:29.986Z,6.90
2024-05-09T03:55:03.099Z,7.10
2024-05-09T03:55:36.414Z,7.60
2024-05-09T03:56:09.621Z,7.20
2024-05-09T03:56:42.843Z,6.60
2024-05-09T03:57:16.050Z,7.40
2024-05-09T03:57:49.004Z,7.60
2024-05-09T03:58:21.970Z,6.80
2024-05-09T03:58:55.245Z,7.30
2024-05-09T03:59:28.680Z,7.20
2024-05-09T04:00:03.019Z,7.70
2024-05-09T04:00:39.441Z,7.30
2024-05-09T04:01:13.630Z,8.10
2024-05-09T04:01:46.742Z,7.00
2024-05-09T04:02:19.954Z,6.60
2024-05-09T04:02:53.226Z,6.80
2024-05-09T04:03:26.874Z,7.00
2024-05-09T04:04:00.253Z,7.70
2024-05-09T04:04:33.495Z,6.50
2024-05-09T04:05:06.571Z,6.70
2024-05-09T04:05:41.938Z,7.50
2024-05-09T04:06:23.358Z,6.80
2024-05-09T04:06:56.367Z,7.20
2024-05-09T04:07:29.476Z,6.50
2024-05-09T04:08:02.575Z,6.90
2024-05-09T04:08:35.900Z,6.60
2024-05-09T04:09:09.488Z,7.20
2024-05-09T04:09:42.500Z,6.90
2024-05-09T04:10:24.013Z,6.60
2024-05-09T04:11:04.155Z,7.10
2024-05-09T04:11:37.789Z,7.70
2024-05-09T04:12:11.347Z,7.50
2024-05-09T04:12:44.513Z,7.60
2024-05-09T04:13:17.648Z,7.60
2024-05-09T04:13:50.843Z,7.50
2024-05-09T04:14:24.103Z,8.50
2024-05-09T04:14:57.250Z,9.10
2024-05-09T04:15:30.385Z,8.70
2024-05-09T04:16:03.653Z,9.20
2024-05-09T04:16:36.896Z,9.20
2024-05-09T04:17:10.072Z,9.20
2024-05-09T04:17:47.370Z,9.80
2024-05-09T04:18:20.738Z,9.40
2024-05-09T04:18:54.270Z,8.80
2024-05-09T04:19:27.799Z,9.20
2024-05-09T04:20:01.203Z,9.70
2024-05-09T04:20:38.966Z,8.90
2024-05-09T04:21:14.172Z,9.30
2024-05-09T04:21:47.319Z,9.40
2024-05-09T04:22:20.435Z,9.40
2024-05-09T04:22:53.471Z,9.30
2024-05-09T04:23:26.649Z,8.80
2024-05-09T04:23:59.783Z,10.20
2024-05-09T04:24:33.060Z,10.00
2024-05-09T04:25:06.472Z,9.50
2024-05-09T04:25:44.582Z,9.60
2024-05-09T04:26:18.081Z,9.10
2024-05-09T04:26:51.015Z,9.60
2024-05-09T04:27:24.207Z,9.80
2024-05-09T04:27:57.444Z,9.60
2024-05-09T04:28:30.986Z,9.60
2024-05-09T04:29:04.042Z,8.40
2024-05-09T04:29:40.050Z,9.80
2024-05-09T04:30:21.595Z,9.10
2024-05-09T04:31:03.329Z,9.40
2024-05-09T04:31:36.787Z,9.70
2024-05-09T04:32:10.090Z,9.50
2024-05-09T04:32:43.871Z,8.40
2024-05-09T04:33:19.255Z,8.10
2024-05-09T04:33:52.983Z,6.40
2024-05-09T04:34:26.012Z,7.00
2024-05-09T04:34:59.317Z,6.60
2024-05-09T04:35:32.570Z,6.10
2024-05-09T04:36:06.964Z,6.70
2024-05-09T04:36:43.198Z,6.30
2024-05-09T04:37:17.762Z,6.70
2024-05-09T04:37:50.961Z,6.40
2024-05-09T04:38:24.144Z,7.00
2024-05-09T04:38:57.165Z,7.10
2024-05-09T04:39:30.235Z,6.40
2024-05-09T04:40:05.400Z,6.90
2024-05-09T04:40:40.244Z,6.90
2024-05-09T04:41:13.536Z,6.80
2024-05-09T04:41:46.452Z,6.30
2024-05-09T04:42:19.412Z,6.80
2024-05-09T04:42:52.520Z,7.20
2024-05-09T04:43:25.708Z,6.90
2024-05-09T04:43:58.828Z,6.80
2024-05-09T04:44:32.230Z,6.70
2024-05-09T04:45:05.646Z,6.30
2024-05-09T04:45:38.644Z,6.80
2024-05-09T04:46:11.653Z,6.00
2024-05-09T04:46:44.866Z,6.20
2024-05-09T04:47:18.243Z,6.70
2024-05-09T04:47:51.872Z,6.30
2024-05-09T04:48:25.229Z,6.70
2024-05-09T04:48:58.313Z,6.50
2024-05-09T04:49:31.461Z,7.30
2024-05-09T04:50:08.860Z,6.20
2024-05-09T04:50:44.573Z,6.70
2024-05-09T04:51:17.732Z,5.80
2024-05-09T04:51:50.744Z,7.10
2024-05-09T04:52:23.844Z,6.20
2024-05-09T04:52:56.877Z,6.50
2024-05-09T04:53:29.920Z,6.70
2024-05-09T04:54:02.993Z,6.70
2024-05-09T04:54:36.861Z,6.30
2024-05-09T04:55:10.134Z,6.50
2024-05-09T04:55:43.365Z,6.50
2024-05-09T04:56:16.682Z,6.10
2024-05-09T04:56:49.807Z,6.20
2024-05-09T04:57:22.863Z,6.20
2024-05-09T04:57:55.879Z,6.50
2024-05-09T04:58:28.964Z,6.20
2024-05-09T04:59:02.106Z,6.70
2024-05-09T04:59:36.521Z,6.60
2024-05-09T05:00:14.768Z,6.30
2024-05-09T05:00:54.842Z,5.70
2024-05-09T05:01:28.083Z,6.30
2024-05-09T05:02:01.207Z,5.80
2024-05-09T05:02:34.503Z,6.20
2024-05-09T05:03:11.013Z,5.70
2024-05-09T05:03:46.379Z,6.40
2024-05-09T05:04:19.619Z,6.30
2024-05-09T05:04:52.764Z,5.90
2024-05-09T05:05:25.921Z,6.30
2024-05-09T05:05:59.004Z,6.10
2024-05-09T05:06:32.080Z,6.40
2024-05-09T05:07:05.197Z,6.50
2024-05-09T05:07:38.161Z,5.40
2024-05-09T05:08:13.131Z,6.20
2024-05-09T05:08:46.725Z,5.80
2024-05-09T05:09:19.872Z,5.80
2024-05-09T05:09:53.265Z,6.00
2024-05-09T05:10:33.765Z,5.80
2024-05-09T05:11:12.191Z,6.30
2024-05-09T05:11:45.342Z,5.10
2024-05-09T05:12:36.720Z,5.80
2024-05-09T05:13:20.768Z,5.90
2024-05-09T05:13:55.326Z,5.50
2024-05-09T05:14:28.430Z,5.90
2024-05-09T05:15:01.484Z,6.10
2024-05-09T05:15:34.544Z,5.90
2024-05-09T05:16:07.756Z,5.60
2024-05-09T05:16:40.803Z,5.80
2024-05-09T05:17:13.911Z,5.60
2024-05-09T05:17:47.255Z,5.20
2024-05-09T05:18:21.344Z,5.50
2024-05-09T05:18:54.811Z,5.30
2024-05-09T05:19:28.221Z,5.60
2024-05-09T05:20:01.614Z,5.10
2024-05-09T05:20:35.037Z,6.00
2024-05-09T05:21:08.225Z,6.20
2024-05-09T05:21:41.153Z,5.40
2024-05-09T05:22:14.199Z,5.20
2024-05-09T05:22:47.925Z,5.00
2024-05-09T05:23:22.407Z,5.10
2024-05-09T05:23:55.597Z,5.30
2024-05-09T05:24:28.780Z,5.90
2024-05-09T05:25:02.037Z,5.20
2024-05-09T05:25:35.126Z,5.70
2024-05-09T05:26:08.289Z,5.30
2024-05-09T05:26:41.570Z,5.90
2024-05-09T05:27:14.710Z,5.40
2024-05-09T05:27:47.760Z,5.40
2024-05-09T05:28:21.962Z,4.90
2024-05-09T05:28:55.307Z,4.80
2024-05-09T05:29:28.708Z,4.60
2024-05-09T05:30:01.700Z,5.00
2024-05-09T05:30:37.835Z,5.00
2024-05-09T05:31:11.087Z,5.10
2024-05-09T05:31:44.532Z,5.60
2024-05-09T05:32:17.839Z,5.00
2024-05-09T05:32:50.978Z,5.20
2024-05-09T05:33:24.292Z,4.80
2024-05-09T05:33:57.396Z,5.20
2024-05-09T05:34:31.505Z,5.10
2024-05-09T05:35:05.058Z,5.60
2024-05-09T05:35:38.369Z,5.30
2024-05-09T05:36:11.517Z,4.80
2024-05-09T05:36:44.605Z,4.40
2024-05-09T05:37:17.709Z,4.70
2024-05-09T05:37:50.724Z,4.70
2024-05-09T05:38:27.393Z,4.70
2024-05-09T05:39:01.526Z,4.30
2024-05-09T05:39:34.564Z,4.70
2024-05-09T05:40:11.888Z,4.70
2024-05-09T05:40:47.420Z,4.40
2024-05-09T05:41:20.590Z,4.20
2024-05-09T05:41:53.728Z,4.80
2024-05-09T05:42:26.635Z,4.50
2024-05-09T05:42:59.663Z,6.00
2024-05-09T05:43:32.609Z,4.10
2024-05-09T05:44:05.741Z,4.70
2024-05-09T05:44:38.842Z,4.40
2024-05-09T05:45:11.971Z,4.20
2024-05-09T05:45:46.013Z,4.40
2024-05-09T05:46:19.109Z,4.80
2024-05-09T05:46:52.039Z,4.60
2024-05-09T05:47:25.133Z,4.20
2024-05-09T05:47:58.435Z,4.40
2024-05-09T05:48:31.635Z,4.60
2024-05-09T05:49:04.830Z,3.90
2024-05-09T05:49:38.024Z,3.90
2024-05-09T05:50:20.760Z,4.00
2024-05-09T05:51:03.643Z,4.20
2024-05-09T05:51:37.462Z,4.00
2024-05-09T05:52:11.150Z,4.70
2024-05-09T05:52:44.190Z,3.60
2024-05-09T05:53:17.356Z,4.10
2024-05-09T05:53:50.500Z,4.40
2024-05-09T05:54:23.814Z,4.40
2024-05-09T05:54:56.906Z,4.30
2024-05-09T05:55:29.909Z,4.00
2024-05-09T05:56:03.004Z,4.20
2024-05-09T05:56:36.259Z,4.30
2024-05-09T05:57:09.220Z,5.00
2024-05-09T05:57:42.237Z,4.10
2024-05-09T05:58:15.366Z,4.40
2024-05-09T05:58:48.598Z,4.70
2024-05-09T05:59:24.071Z,4.20
2024-05-09T05:59:56.974Z,4.30
2024-05-09T06:00:37.675Z,4.30
2024-05-09T06:01:13.012Z,4.30
2024-05-09T06:01:46.272Z,4.10
2024-05-09T06:02:19.758Z,4.00
2024-05-09T06:02:53.240Z,4.20
2024-05-09T06:03:26.400Z,4.70
2024-05-09T06:03:59.655Z,4.00
2024-05-09T06:04:32.963Z,4.20
2024-05-09T06:05:06.416Z,4.40
2024-05-09T06:05:40.874Z,4.40
2024-05-09T06:06:14.297Z,4.60
2024-05-09T06:06:48.672Z,6.00
2024-05-09T06:07:22.025Z,5.50
2024-05-09T06:07:55.145Z,5.00
2024-05-09T06:08:30.150Z,4.20
2024-05-09T06:09:03.636Z,4.40
2024-05-09T06:09:36.738Z,4.00
2024-05-09T06:10:17.270Z,4.00
2024-05-09T06:10:54.867Z,4.10
2024-05-09T06:11:28.026Z,3.90
2024-05-09T06:12:01.303Z,4.20
2024-05-09T06:12:34.389Z,3.90
2024-05-09T06:13:10.436Z,3.90
2024-05-09T06:13:43.901Z,3.80
2024-05-09T06:14:17.359Z,4.20
2024-05-09T06:14:50.539Z,3.90
2024-05-09T06:15:23.564Z,4.40
2024-05-09T06:15:56.662Z,4.00
2024-05-09T06:16:29.784Z,4.20
2024-05-09T06:17:02.860Z,3.70
2024-05-09T06:17:36.128Z,3.60
2024-05-09T06:18:11.134Z,3.80
2024-05-09T06:18:46.855Z,3.60
2024-05-09T06:19:20.163Z,4.40
2024-05-09T06:19:53.601Z,4.00
2024-05-09T06:20:34.830Z,4.00
2024-05-09T06:21:10.474Z,4.30
2024-05-09T06:21:43.521Z,4.10
2024-05-09T06:22:16.480Z,3.80
2024-05-09T06:22:49.493Z,3.90
2024-05-09T06:23:22.484Z,4.20
2024-05-09T06:23:55.551Z,4.40
2024-05-09T06:24:28.717Z,4.30
2024-05-09T06:25:01.630Z,4.40
2024-05-09T06:25:35.750Z,3.60
2024-05-09T06:26:08.904Z,4.50
2024-05-09T06:26:42.727Z,4.30
2024-05-09T06:27:15.853Z,4.00
2024-05-09T06:27:49.592Z,4.20
2024-05-09T06:28:22.801Z,3.80
2024-05-09T06:28:55.754Z,3.90
2024-05-09T06:29:29.026Z,3.70
2024-05-09T06:30:02.350Z,3.70
2024-05-09T06:30:42.203Z,3.70
2024-05-09T06:31:16.432Z,4.00
2024-05-09T06:31:49.691Z,3.80
2024-05-09T06:32:23.095Z,3.70
2024-05-09T06:32:56.576Z,4.40
2024-05-09T06:33:30.195Z,3.80
2024-05-09T06:34:04.555Z,4.40
2024-05-09T06:34:37.729Z,3.90
2024-05-09T06:35:10.990Z,3.80
2024-05-09T06:35:46.772Z,3.60
2024-05-09T06:36:20.030Z,3.90
2024-05-09T06:36:53.116Z,4.00
2024-05-09T06:37:26.248Z,4.00
2024-05-09T06:37:59.318Z,3.50
2024-05-09T06:38:33.077Z,4.10
2024-05-09T06:39:06.266Z,3.30
2024-05-09T06:39:39.303Z,3.70
2024-05-09T06:40:45.419Z,3.70
2024-05-09T06:41:18.495Z,4.70
2024-05-09T06:41:52.111Z,4.40
2024-05-09T06:42:25.163Z,4.40
2024-05-09T06:42:59.162Z,3.70
2024-05-09T06:43:32.433Z,3.70
2024-05-09T06:44:05.579Z,4.10
2024-05-09T06:44:38.624Z,3.90
2024-05-09T06:45:11.728Z,4.50
2024-05-09T06:45:46.057Z,4.00
2024-05-09T06:46:19.141Z,4.30
2024-05-09T06:46:52.309Z,3.90
2024-05-09T06:47:25.393Z,3.80
2024-05-09T06:47:58.549Z,3.80
2024-05-09T06:48:31.848Z,4.00
2024-05-09T06:49:08.353Z,3.70
2024-05-09T06:49:41.635Z,3.40
2024-05-09T06:50:23.253Z,4.30
2024-05-09T06:50:57.922Z,3.80
2024-05-09T06:51:30.913Z,3.80
2024-05-09T06:52:04.268Z,4.10
2024-05-09T06:52:37.182Z,3.60
2024-05-09T06:53:10.584Z,3.50
2024-05-09T06:53:43.779Z,3.50
2024-05-09T06:54:18.315Z,3.40
2024-05-09T06:54:51.359Z,4.00
2024-05-09T06:55:24.429Z,3.70
2024-05-09T06:55:57.379Z,4.30
2024-05-09T06:56:30.290Z,4.90
2024-05-09T06:57:03.811Z,5.00
2024-05-09T06:57:38.388Z,4.60
2024-05-09T06:58:12.105Z,6.10
2024-05-09T06:58:45.024Z,10.00
2024-05-09T06:59:18.246Z,7.60
2024-05-09T06:59:51.253Z,6.40
2024-05-09T07:00:30.855Z,7.10
2024-05-09T07:01:11.322Z,4.40
2024-05-09T07:01:44.515Z,4.20
2024-05-09T07:02:17.542Z,3.80
2024-05-09T07:02:50.686Z,4.90
2024-05-09T07:03:24.053Z,4.20
2024-05-09T07:03:57.056Z,4.00
2024-05-09T07:04:30.612Z,4.30
2024-05-09T07:05:04.272Z,4.30
2024-05-09T07:05:37.677Z,4.30
2024-05-09T07:06:10.815Z,3.90
2024-05-09T07:06:43.878Z,3.80
2024-05-09T07:07:16.811Z,3.40
2024-05-09T07:07:49.996Z,4.60
2024-05-09T07:08:23.256Z,4.70
2024-05-09T07:08:56.199Z,4.20
2024-05-09T07:09:29.250Z,4.20
2024-05-09T07:10:02.159Z,4.10
2024-05-09T07:10:36.510Z,3.60
2024-05-09T07:11:10.237Z,4.00
2024-05-09T07:11:43.579Z,3.90
2024-05-09T07:12:16.901Z,3.50
2024-05-09T07:12:50.165Z,3.70
2024-05-09T07:13:23.463Z,3.60
2024-05-09T07:13:56.704Z,3.10
2024-05-09T07:14:30.339Z,3.90
2024-05-09T07:15:03.443Z,4.10
2024-05-09T07:15:36.586Z,3.80
2024-05-09T07:16:09.647Z,3.80
2024-05-09T07:16:42.631Z,3.70
2024-05-09T07:17:15.760Z,3.90
2024-05-09T07:17:49.006Z,4.10
2024-05-09T07:18:22.476Z,4.10
2024-05-09T07:18:56.119Z,3.70
2024-05-09T07:19:29.526Z,3.90
2024-05-09T07:20:02.651Z,3.30
2024-05-09T07:20:35.794Z,3.60
2024-05-09T07:21:08.784Z,3.50
2024-05-09T07:21:41.844Z,3.50
2024-05-09T07:22:14.777Z,3.50
2024-05-09T07:22:47.850Z,3.40
2024-05-09T07:23:21.075Z,3.90
2024-05-09T07:23:54.165Z,3.40
2024-05-09T07:24:27.146Z,4.30
2024-05-09T07:25:00.181Z,4.00
2024-05-09T07:25:33.406Z,3.70
2024-05-09T07:26:06.600Z,4.10
2024-05-09T07:26:39.692Z,4.00
2024-05-09T07:27:13.156Z,3.90
2024-05-09T07:27:46.397Z,3.20
2024-05-09T07:28:21.109Z,4.30
2024-05-09T07:28:54.143Z,3.80
2024-05-09T07:29:27.322Z,4.20
2024-05-09T07:30:00.682Z,3.80
2024-05-09T07:30:35.035Z,3.80
2024-05-09T07:31:08.869Z,4.20
2024-05-09T07:31:41.876Z,4.30
2024-05-09T07:32:15.087Z,4.10
2024-05-09T07:32:48.915Z,3.90
2024-05-09T07:33:23.866Z,3.50
2024-05-09T07:33:57.663Z,3.40